Time;durP1;ratioP1;P1;durP2;ratioP2;P2;SDS_P1;SDS_P2;PMS_P1;PMS_P2;Temp;Humidity;BMP_temperature;BMP_pressure;BME280_temperature;BME280_humidity;BME280_pressure;Samples;Min_cycle;Max_cycle;Signal;HPM_P1;HPM_P2
2021/07/15 00:00:34;;;;;;;;;;;;;;;;;;2108572;28;1312;-88
2021/07/15 00:01:36;;;;;;;;;;;;;;;;;;2109408;28;1174;-88
2021/07/15 00:02:38;;;;;;;;;;;;;;;;;;2108545;28;1166;-89
2021/07/15 00:03:38;;;;;;;;;;;;;;;;;;2108657;28;1162;-88
2021/07/15 00:04:40;;;;;;;;;;;;;;;;;;2108403;28;1303;-88
2021/07/15 00:05:41;;;;;;;;;;;;;;;;;;2108468;28;1237;-88
2021/07/15 00:06:43;;;;;;;;;;;;;;;;;;2108447;28;1171;-88
2021/07/15 00:07:43;;;;;;;;;;;;;;;;;;2108493;28;1184;-88
2021/07/15 00:08:47;;;;;;;;;;;;;;;;;;2108497;28;1214;-88
2021/07/15 00:09:48;;;;;;;;;;;;;;;;;;2109014;28;1296;-88
2021/07/15 00:10:51;;;;;;;;;;;;;;;;;;2108053;28;1918;-87
2021/07/15 00:11:52;;;;;;;;;;;;;;;;;;2116462;28;1274;-87
2021/07/15 00:12:54;;;;;;;;;;;;;;;;;;2099803;28;1208;-87
2021/07/15 00:13:54;;;;;;;;;;;;;;;;;;2108342;28;1169;-91
2021/07/15 00:14:56;;;;;;;;;;;;;;;;;;2108288;28;1362;-91
2021/07/15 00:15:57;;;;;;;;;;;;;;;;;;2117027;28;1154;-90
2021/07/15 00:16:59;;;;;;;;;;;;;;;;;;2099851;28;1287;-90
2021/07/15 00:18:00;;;;;;;;;;;;;;;;;;2100099;28;1353;-90
2021/07/15 00:19:01;;;;;;;;;;;;;;;;;;2108292;28;1284;-91
2021/07/15 00:20:04;;;;;;;;;;;;;;;;;;2108360;28;1208;-91
2021/07/15 00:21:07;;;;;;;;;;;;;;;;;;2108681;28;1293;-91
2021/07/15 00:22:09;;;;;;;;;;;;;;;;;;2108847;28;1211;-91
2021/07/15 00:23:11;;;;;;;;;;;;;;;;;;2108372;28;1319;-89
2021/07/15 00:24:13;;;;;;;;;;;;;;;;;;2108379;28;1265;-90
2021/07/15 00:25:16;;;;;;;;;;;;;;;;;;2116597;28;1422;-90
2021/07/15 00:26:16;;;;;;;;;;;;;;;;;;2108428;28;1178;-91
2021/07/15 00:27:18;;;;;;;;;;;;;;;;;;2108467;28;1349;-92
2021/07/15 00:28:19;;;;;;;;;;;;;;;;;;2108211;28;1287;-91
2021/07/15 00:29:21;;;;;;;;;;;;;;;;;;2108380;28;1191;-91
2021/07/15 00:30:21;;;;;;;;;;;;;;;;;;2108280;28;1965;-91
2021/07/15 00:31:23;;;;;;;;;;;;;;;;;;2108662;28;1200;-91
2021/07/15 00:32:23;;;;;;;;;;;;;;;;;;2108216;28;1277;-90
2021/07/15 00:33:25;;;;;;;;;;;;;;;;;;2108207;28;1282;-88
2021/07/15 00:34:25;;;;;;;;;;;;;;;;;;2108163;28;1200;-90
2021/07/15 00:35:27;;;;;;;;;;;;;;;;;;2108189;28;1332;-89
2021/07/15 00:36:28;;;;;;;;;;;;;;;;;;2108172;28;1177;-90
2021/07/15 00:37:29;;;;;;;;;;;;;;;;;;2107918;28;1300;-89
2021/07/15 00:38:30;;;;;;;;;;;;;;;;;;2108009;28;1316;-87
2021/07/15 00:39:34;;;;;;;;;;;;;;;;;;2108202;28;1276;-87
2021/07/15 00:40:35;;;;;;;;;;;;;;;;;;2108385;28;1182;-87
2021/07/15 00:41:37;;;;;;;;;;;;;;;;;;2108419;28;1199;-88
2021/07/15 00:42:38;;;;;;;;;;;;;;;;;;2108258;28;1178;-88
2021/07/15 00:43:39;;;;;;;;;;;;;;;;;;2108194;28;1322;-88
2021/07/15 00:44:40;;;;;;;;;;;;;;;;;;2116623;28;1532;-89
2021/07/15 00:45:41;;;;;;;;;;;;;;;;;;2116666;28;1182;-90
2021/07/15 00:46:42;;;;;;;;;;;;;;;;;;2108163;28;1217;-91
2021/07/15 00:47:44;;;;;;;;;;;;;;;;;;2107920;28;1224;-90
2021/07/15 00:48:44;;;;;;;;;;;;;;;;;;2116768;28;849;-92
2021/07/15 00:49:46;;;;;;;;;;;;;;;;;;2116293;28;1111;-90
2021/07/15 00:50:46;;;;;;;;;;;;;;;;;;2116235;28;1967;-91
2021/07/15 00:51:48;;;;;;;;;;;;;;;;;;2099752;28;1255;-90
2021/07/15 00:52:50;;;;;;;;;;;;;;;;;;2099798;28;1295;-91
2021/07/15 00:53:51;;;;;;;;;;;;;;;;;;2108376;28;1258;-91
2021/07/15 00:54:53;;;;;;;;;;;;;;;;;;2108208;28;1395;-92
2021/07/15 00:55:55;;;;;;;;;;;;;;;;;;2108322;28;1194;-92
2021/07/15 00:56:56;;;;;;;;;;;;;;;;;;2108670;28;1262;-92
2021/07/15 00:57:58;;;;;;;;;;;;;;;;;;2108492;28;1294;-92
2021/07/15 00:58:58;;;;;;;;;;;;;;;;;;2108232;28;1161;-93
2021/07/15 01:00:00;;;;;;;;;;;;;;;;;;2108081;28;1457;-93
2021/07/15 01:01:02;;;;;;;;;;;;;;;;;;2108251;28;1340;-93
2021/07/15 01:02:04;;;;;;;;;;;;;;;;;;2108611;28;1296;-90
2021/07/15 01:03:05;;;;;;;;;;;;;;;;;;2108208;28;1194;-90
2021/07/15 01:04:06;;;;;;;;;;;;;;;;;;2116523;28;1223;-90
2021/07/15 01:05:09;;;;;;;;;;;;;;;;;;2107800;28;1200;-90
2021/07/15 01:06:10;;;;;;;;;;;;;;;;;;2108266;28;1353;-91
2021/07/15 01:07:11;;;;;;;;;;;;;;;;;;2108113;28;1305;-90
2021/07/15 01:08:13;;;;;;;;;;;;;;;;;;2107812;28;1269;-90
2021/07/15 01:09:14;;;;;;;;;;;;;;;;;;2108153;28;1168;-90
2021/07/15 01:10:19;;;;;;;;;;;;;;;;;;2108115;28;1186;-90
2021/07/15 01:11:27;;;;;;;;;;;;;;;;;;2108258;28;1894;-93
2021/07/15 01:12:39;;;;;;;;;;;;;;;;;;2109023;28;1181;-92
2021/07/15 01:13:45;;;;;;;;;;;;;;;;;;2109456;28;1146;-91
2021/07/15 01:14:53;;;;;;;;;;;;;;;;;;2108805;28;1289;-92
2021/07/15 01:16:01;;;;;;;;;;;;;;;;;;2108896;28;1162;-92
2021/07/15 01:17:05;;;;;;;;;;;;;;;;;;2109102;28;1375;-94
2021/07/15 01:18:11;;;;;;;;;;;;;;;;;;2108998;28;1230;-94
2021/07/15 01:19:33;;;;;;;;;;;;;;;;;;2108985;28;1350;-94
2021/07/15 01:20:48;;;;;;;;;;;;;;;;;;2110998;28;1175;-93
2021/07/15 01:22:00;;;;;;;;;;;;;;;;;;2110158;28;1211;-94
2021/07/15 01:23:10;;;;;;;;;;;;;;;;;;2109546;28;1283;-94
2021/07/15 01:24:30;;;;;;;;;;;;;;;;;;2116795;28;1343;-93
2021/07/15 01:26:02;;;;;;;;;;;;;;;;;;2110760;28;1398;-94
2021/07/15 01:27:15;;;;;;;;;;;;;;;;;;2112241;28;1207;-93
2021/07/15 01:28:21;;;;;;;;;;;;;;;;;;2109458;28;1473;-89
2021/07/15 01:29:25;;;;;;;;;;;;;;;;;;2108565;28;1302;-91
2021/07/15 01:30:31;;;;;;;;;;;;;;;;;;2108519;28;1300;-91
2021/07/15 01:31:34;;;;;;;;;;;;;;;;;;2108484;28;1921;-93
2021/07/15 01:32:39;;;;;;;;;;;;;;;;;;2107910;28;1191;-91
2021/07/15 01:33:41;;;;;;;;;;;;;;;;;;2108543;28;1203;-92
2021/07/15 01:34:43;;;;;;;;;;;;;;;;;;2107901;28;1283;-91
2021/07/15 01:35:48;;;;;;;;;;;;;;;;;;2107980;28;1262;-92
2021/07/15 01:36:51;;;;;;;;;;;;;;;;;;2116707;28;795;-93
2021/07/15 01:37:55;;;;;;;;;;;;;;;;;;2116408;28;1213;-93
2021/07/15 01:38:58;;;;;;;;;;;;;;;;;;2108297;28;1316;-94
2021/07/15 01:40:00;;;;;;;;;;;;;;;;;;2108410;28;1096;-92
2021/07/15 01:41:03;;;;;;;;;;;;;;;;;;2108551;28;1311;-93
2021/07/15 01:42:05;;;;;;;;;;;;;;;;;;2108687;28;1177;-91
2021/07/15 01:43:09;;;;;;;;;;;;;;;;;;2108249;28;1158;-89
2021/07/15 01:44:11;;;;;;;;;;;;;;;;;;2108197;28;1176;-90
2021/07/15 01:45:13;;;;;;;;;;;;;;;;;;2107777;28;1395;-89
2021/07/15 01:46:17;;;;;;;;;;;;;;;;;;2107929;28;1315;-89
2021/07/15 01:47:18;;;;;;;;;;;;;;;;;;2108318;28;1220;-89
2021/07/15 01:48:20;;;;;;;;;;;;;;;;;;2107765;28;1245;-89
2021/07/15 01:49:20;;;;;;;;;;;;;;;;;;2107928;28;1198;-89
2021/07/15 01:50:22;;;;;;;;;;;;;;;;;;2108935;28;1162;-89
2021/07/15 01:51:23;;;;;;;;;;;;;;;;;;2109523;28;1970;-89
2021/07/15 01:52:25;;;;;;;;;;;;;;;;;;2118348;28;1227;-89
2021/07/15 01:53:26;;;;;;;;;;;;;;;;;;2117738;28;1205;-89
2021/07/15 01:54:28;;;;;;;;;;;;;;;;;;2117623;28;1215;-89
2021/07/15 01:55:29;;;;;;;;;;;;;;;;;;2109473;28;1296;-90
2021/07/15 01:56:31;;;;;;;;;;;;;;;;;;2109190;28;1270;-90
2021/07/15 01:57:32;;;;;;;;;;;;;;;;;;2109543;28;1167;-90
2021/07/15 01:58:35;;;;;;;;;;;;;;;;;;2109553;28;1182;-89
2021/07/15 01:59:36;;;;;;;;;;;;;;;;;;2109780;28;1353;-90
2021/07/15 02:00:38;;;;;;;;;;;;;;;;;;2109471;28;1200;-90
2021/07/15 02:01:41;;;;;;;;;;;;;;;;;;2109597;28;1279;-89
2021/07/15 02:02:44;;;;;;;;;;;;;;;;;;2109781;28;1198;-89
2021/07/15 02:03:47;;;;;;;;;;;;;;;;;;2109649;28;1170;-89
2021/07/15 02:04:49;;;;;;;;;;;;;;;;;;2117801;28;1282;-89
2021/07/15 02:05:50;;;;;;;;;;;;;;;;;;2109551;28;1159;-89
2021/07/15 02:06:53;;;;;;;;;;;;;;;;;;2109548;28;1182;-90
2021/07/15 02:07:54;;;;;;;;;;;;;;;;;;2101250;28;1390;-90
2021/07/15 02:08:59;;;;;;;;;;;;;;;;;;2101098;28;1402;-90
2021/07/15 02:10:01;;;;;;;;;;;;;;;;;;2110016;28;1185;-90
2021/07/15 02:11:03;;;;;;;;;;;;;;;;;;2101381;28;1901;-90
2021/07/15 02:12:04;;;;;;;;;;;;;;;;;;2101397;28;1265;-90
2021/07/15 02:13:08;;;;;;;;;;;;;;;;;;2109390;28;1313;-91
2021/07/15 02:14:11;;;;;;;;;;;;;;;;;;2109611;28;1171;-90
2021/07/15 02:15:13;;;;;;;;;;;;;;;;;;2109605;28;1494;-91
2021/07/15 02:16:14;;;;;;;;;;;;;;;;;;2109477;28;1301;-88
2021/07/15 02:17:17;;;;;;;;;;;;;;;;;;2117873;28;1116;-91
2021/07/15 02:18:19;;;;;;;;;;;;;;;;;;2117814;28;1194;-90
2021/07/15 02:19:21;;;;;;;;;;;;;;;;;;2109185;28;1356;-89
2021/07/15 02:20:22;;;;;;;;;;;;;;;;;;2109166;28;1151;-89
2021/07/15 02:21:24;;;;;;;;;;;;;;;;;;2109321;28;1297;-89
2021/07/15 02:22:24;;;;;;;;;;;;;;;;;;2117872;28;827;-89
2021/07/15 02:23:28;;;;;;;;;;;;;;;;;;2117560;28;1280;-90
2021/07/15 02:24:30;;;;;;;;;;;;;;;;;;2117677;28;1247;-90
2021/07/15 02:25:33;;;;;;;;;;;;;;;;;;2117830;28;1291;-88
2021/07/15 02:26:34;;;;;;;;;;;;;;;;;;2117348;28;1338;-88
2021/07/15 02:27:36;;;;;;;;;;;;;;;;;;2117367;28;1550;-88
2021/07/15 02:28:37;;;;;;;;;;;;;;;;;;2109232;28;1332;-88
2021/07/15 02:29:39;;;;;;;;;;;;;;;;;;2109178;28;1498;-88
2021/07/15 02:30:39;;;;;;;;;;;;;;;;;;2109305;28;1219;-88
2021/07/15 02:31:43;;;;;;;;;;;;;;;;;;2117394;28;1918;-90
2021/07/15 02:32:47;;;;;;;;;;;;;;;;;;2117756;28;1146;-89
2021/07/15 02:33:50;;;;;;;;;;;;;;;;;;2101387;28;1285;-89
2021/07/15 02:34:52;;;;;;;;;;;;;;;;;;2101317;28;1306;-89
2021/07/15 02:35:55;;;;;;;;;;;;;;;;;;2117847;28;909;-89
2021/07/15 02:36:57;;;;;;;;;;;;;;;;;;2118399;28;1147;-89
2021/07/15 02:37:59;;;;;;;;;;;;;;;;;;2117383;28;1286;-88
2021/07/15 02:39:02;;;;;;;;;;;;;;;;;;2109269;28;1190;-88
2021/07/15 02:40:06;;;;;;;;;;;;;;;;;;2109059;28;1160;-89
2021/07/15 02:41:06;;;;;;;;;;;;;;;;;;2109299;28;1195;-92
2021/07/15 02:42:08;;;;;;;;;;;;;;;;;;2117215;28;1329;-91
2021/07/15 02:43:09;;;;;;;;;;;;;;;;;;2109024;28;1317;-91
2021/07/15 02:44:10;;;;;;;;;;;;;;;;;;2117280;28;1357;-91
2021/07/15 02:45:13;;;;;;;;;;;;;;;;;;2117705;28;1334;-92
2021/07/15 02:46:14;;;;;;;;;;;;;;;;;;2117319;28;1269;-91
2021/07/15 02:47:15;;;;;;;;;;;;;;;;;;2109166;28;1174;-92
2021/07/15 02:48:18;;;;;;;;;;;;;;;;;;2109179;28;1204;-92
2021/07/15 02:49:19;;;;;;;;;;;;;;;;;;2109177;28;1329;-92
2021/07/15 02:50:22;;;;;;;;;;;;;;;;;;2109216;28;1342;-91
2021/07/15 02:51:22;;;;;;;;;;;;;;;;;;2110008;28;1906;-91
2021/07/15 02:52:24;;;;;;;;;;;;;;;;;;2110610;28;1163;-92
2021/07/15 02:53:25;;;;;;;;;;;;;;;;;;2111059;28;1289;-92
2021/07/15 02:54:26;;;;;;;;;;;;;;;;;;2110240;28;1231;-91
2021/07/15 02:55:27;;;;;;;;;;;;;;;;;;2110354;28;1233;-92
2021/07/15 02:56:32;;;;;;;;;;;;;;;;;;2109023;28;1179;-92
2021/07/15 02:57:35;;;;;;;;;;;;;;;;;;2109426;28;1331;-92
2021/07/15 02:58:41;;;;;;;;;;;;;;;;;;2117469;28;1420;-92
2021/07/15 02:59:46;;;;;;;;;;;;;;;;;;2109628;28;1313;-91
2021/07/15 03:00:50;;;;;;;;;;;;;;;;;;2108972;28;1328;-91
2021/07/15 03:01:57;;;;;;;;;;;;;;;;;;2117445;28;1127;-89
2021/07/15 03:03:01;;;;;;;;;;;;;;;;;;2117354;28;1319;-89
2021/07/15 03:04:08;;;;;;;;;;;;;;;;;;2109580;28;1158;-89
2021/07/15 03:05:12;;;;;;;;;;;;;;;;;;2109741;28;1331;-89
2021/07/15 03:06:13;;;;;;;;;;;;;;;;;;2109501;28;1153;-89
2021/07/15 03:07:16;;;;;;;;;;;;;;;;;;2117378;28;1027;-89
2021/07/15 03:08:19;;;;;;;;;;;;;;;;;;2117352;28;1190;-89
2021/07/15 03:09:23;;;;;;;;;;;;;;;;;;2117135;28;1179;-89
2021/07/15 03:10:24;;;;;;;;;;;;;;;;;;2100839;28;1201;-90
2021/07/15 03:11:29;;;;;;;;;;;;;;;;;;2100490;28;1965;-90
2021/07/15 03:12:32;;;;;;;;;;;;;;;;;;2109450;28;1285;-89
2021/07/15 03:13:33;;;;;;;;;;;;;;;;;;2109010;28;1399;-90
2021/07/15 03:14:35;;;;;;;;;;;;;;;;;;2117043;28;1215;-90
2021/07/15 03:15:39;;;;;;;;;;;;;;;;;;2117024;28;1269;-87
2021/07/15 03:16:41;;;;;;;;;;;;;;;;;;2109277;28;1289;-88
2021/07/15 03:17:45;;;;;;;;;;;;;;;;;;2108682;28;1168;-89
2021/07/15 03:18:47;;;;;;;;;;;;;;;;;;2109121;28;1242;-88
2021/07/15 03:19:50;;;;;;;;;;;;;;;;;;2117025;28;1101;-88
2021/07/15 03:20:52;;;;;;;;;;;;;;;;;;2117196;28;1224;-88
2021/07/15 03:21:54;;;;;;;;;;;;;;;;;;2117269;28;1163;-90
2021/07/15 03:22:57;;;;;;;;;;;;;;;;;;2108949;28;1343;-90
2021/07/15 03:23:59;;;;;;;;;;;;;;;;;;2100926;28;1144;-90
2021/07/15 03:25:02;;;;;;;;;;;;;;;;;;2108915;28;1481;-90
2021/07/15 03:26:04;;;;;;;;;;;;;;;;;;2108940;28;1239;-90
2021/07/15 03:27:05;;;;;;;;;;;;;;;;;;2108891;28;1150;-89
2021/07/15 03:28:09;;;;;;;;;;;;;;;;;;2108666;28;1237;-89
2021/07/15 03:29:12;;;;;;;;;;;;;;;;;;2109395;28;1212;-88
2021/07/15 03:30:14;;;;;;;;;;;;;;;;;;2109086;28;1163;-89
2021/07/15 03:31:15;;;;;;;;;;;;;;;;;;2108757;28;1195;-89
2021/07/15 03:32:17;;;;;;;;;;;;;;;;;;2108874;28;1910;-89
2021/07/15 03:33:21;;;;;;;;;;;;;;;;;;2108849;28;1197;-89
2021/07/15 03:34:23;;;;;;;;;;;;;;;;;;2109070;28;1267;-89
2021/07/15 03:35:26;;;;;;;;;;;;;;;;;;2108860;28;1320;-89
2021/07/15 03:36:28;;;;;;;;;;;;;;;;;;2108960;28;1178;-89
2021/07/15 03:37:29;;;;;;;;;;;;;;;;;;2108989;28;1166;-89
2021/07/15 03:38:31;;;;;;;;;;;;;;;;;;2117368;28;1242;-92
2021/07/15 03:39:33;;;;;;;;;;;;;;;;;;2109584;28;1250;-91
2021/07/15 03:40:35;;;;;;;;;;;;;;;;;;2109099;28;1301;-91
2021/07/15 03:41:36;;;;;;;;;;;;;;;;;;2109401;28;1286;-92
2021/07/15 03:42:38;;;;;;;;;;;;;;;;;;2108996;28;1280;-89
2021/07/15 03:43:40;;;;;;;;;;;;;;;;;;2108835;28;1317;-89
2021/07/15 03:44:41;;;;;;;;;;;;;;;;;;2108550;28;1276;-88
2021/07/15 03:45:45;;;;;;;;;;;;;;;;;;2108697;28;1295;-88
2021/07/15 03:46:47;;;;;;;;;;;;;;;;;;2117121;28;1256;-88
2021/07/15 03:47:51;;;;;;;;;;;;;;;;;;2108798;28;1179;-87
2021/07/15 03:48:53;;;;;;;;;;;;;;;;;;2109063;28;1163;-88
2021/07/15 03:49:54;;;;;;;;;;;;;;;;;;2108554;28;1305;-88
2021/07/15 03:50:58;;;;;;;;;;;;;;;;;;2108556;28;1173;-89
2021/07/15 03:51:59;;;;;;;;;;;;;;;;;;2108873;28;1971;-89
2021/07/15 03:53:03;;;;;;;;;;;;;;;;;;2108394;28;1193;-90
2021/07/15 03:54:04;;;;;;;;;;;;;;;;;;2108912;28;1260;-90
2021/07/15 03:55:06;;;;;;;;;;;;;;;;;;2116666;28;1223;-89
2021/07/15 03:56:08;;;;;;;;;;;;;;;;;;2108423;28;1204;-90
2021/07/15 03:57:10;;;;;;;;;;;;;;;;;;2116993;28;1104;-90
2021/07/15 03:58:11;;;;;;;;;;;;;;;;;;2117081;28;1157;-90
2021/07/15 03:59:13;;;;;;;;;;;;;;;;;;2108647;28;1223;-90
2021/07/15 04:00:13;;;;;;;;;;;;;;;;;;2108575;28;1184;-90
2021/07/15 04:01:16;;;;;;;;;;;;;;;;;;2108499;28;1282;-91
2021/07/15 04:02:18;;;;;;;;;;;;;;;;;;2108710;28;1140;-90
2021/07/15 04:03:21;;;;;;;;;;;;;;;;;;2108791;28;1299;-90
2021/07/15 04:04:24;;;;;;;;;;;;;;;;;;2108748;28;1381;-90
2021/07/15 04:05:28;;;;;;;;;;;;;;;;;;2109244;28;1366;-90
2021/07/15 04:06:33;;;;;;;;;;;;;;;;;;2108909;28;1182;-90
2021/07/15 04:07:34;;;;;;;;;;;;;;;;;;2108997;28;1270;-91
2021/07/15 04:08:38;;;;;;;;;;;;;;;;;;2108467;28;1252;-89
2021/07/15 04:09:39;;;;;;;;;;;;;;;;;;2108880;28;1257;-89
2021/07/15 04:10:41;;;;;;;;;;;;;;;;;;2108588;28;1229;-88
2021/07/15 04:11:45;;;;;;;;;;;;;;;;;;2108431;28;1184;-88
2021/07/15 04:12:48;;;;;;;;;;;;;;;;;;2108084;28;1260;-89
2021/07/15 04:13:50;;;;;;;;;;;;;;;;;;2108524;28;1155;-88
2021/07/15 04:15:09;;;;;;;;;;;;;;;;;;2108463;28;1291;-88
2021/07/15 04:16:21;;;;;;;;;;;;;;;;;;2110524;28;1157;-88
2021/07/15 04:17:23;;;;;;;;;;;;;;;;;;2109955;28;1284;-88
2021/07/15 04:18:26;;;;;;;;;;;;;;;;;;2116830;28;1269;-88
2021/07/15 04:19:28;;;;;;;;;;;;;;;;;;2108681;28;1253;-88
2021/07/15 04:20:30;;;;;;;;;;;;;;;;;;2108347;28;1185;-88
2021/07/15 04:21:34;;;;;;;;;;;;;;;;;;2108275;28;1214;-88
2021/07/15 04:22:36;;;;;;;;;;;;;;;;;;2108526;28;1345;-88
2021/07/15 04:23:38;;;;;;;;;;;;;;;;;;2108146;28;1156;-88
2021/07/15 04:24:39;;;;;;;;;;;;;;;;;;2099910;28;1223;-88
2021/07/15 04:25:43;;;;;;;;;;;;;;;;;;2099968;28;1290;-87
2021/07/15 04:26:44;;;;;;;;;;;;;;;;;;2108576;28;1218;-87
2021/07/15 04:27:47;;;;;;;;;;;;;;;;;;2108305;28;1261;-87
2021/07/15 04:28:49;;;;;;;;;;;;;;;;;;2108011;28;1325;-87
2021/07/15 04:29:51;;;;;;;;;;;;;;;;;;2108377;28;1115;-87
2021/07/15 04:30:53;;;;;;;;;;;;;;;;;;2116705;28;1268;-88
2021/07/15 04:31:58;;;;;;;;;;;;;;;;;;2108270;28;1969;-88
2021/07/15 04:33:00;;;;;;;;;;;;;;;;;;2108693;28;1197;-88
2021/07/15 04:34:01;;;;;;;;;;;;;;;;;;2108421;28;1402;-89
2021/07/15 04:35:04;;;;;;;;;;;;;;;;;;2108251;28;1293;-88
2021/07/15 04:36:04;;;;;;;;;;;;;;;;;;2108447;28;1168;-88
2021/07/15 04:37:08;;;;;;;;;;;;;;;;;;2116690;28;1053;-88
2021/07/15 04:38:10;;;;;;;;;;;;;;;;;;2116665;28;1087;-88
2021/07/15 04:39:11;;;;;;;;;;;;;;;;;;2108383;28;1300;-88
2021/07/15 04:40:16;;;;;;;;;;;;;;;;;;2108319;28;1262;-88
2021/07/15 04:41:17;;;;;;;;;;;;;;;;;;2108688;28;1166;-88
2021/07/15 04:42:20;;;;;;;;;;;;;;;;;;2108289;28;1265;-88
2021/07/15 04:43:24;;;;;;;;;;;;;;;;;;2108241;28;1147;-86
2021/07/15 04:44:28;;;;;;;;;;;;;;;;;;2108368;28;1276;-86
2021/07/15 04:45:31;;;;;;;;;;;;;;;;;;2116564;28;1175;-87
2021/07/15 04:46:32;;;;;;;;;;;;;;;;;;2116443;28;1301;-87
2021/07/15 04:47:35;;;;;;;;;;;;;;;;;;2108024;28;1264;-86
2021/07/15 04:48:35;;;;;;;;;;;;;;;;;;2108148;28;1163;-87
2021/07/15 04:49:37;;;;;;;;;;;;;;;;;;2107882;28;1187;-87
2021/07/15 04:50:37;;;;;;;;;;;;;;;;;;2108120;28;1182;-88
2021/07/15 04:51:40;;;;;;;;;;;;;;;;;;2108125;28;1290;-87
2021/07/15 04:52:44;;;;;;;;;;;;;;;;;;2107758;28;1901;-88
2021/07/15 04:53:45;;;;;;;;;;;;;;;;;;2108272;28;1091;-86
2021/07/15 04:54:47;;;;;;;;;;;;;;;;;;2107911;28;1321;-85
2021/07/15 04:55:48;;;;;;;;;;;;;;;;;;2107816;28;1326;-84
2021/07/15 04:56:50;;;;;;;;;;;;;;;;;;2107821;28;1293;-84
2021/07/15 04:57:50;;;;;;;;;;;;;;;;;;2107968;28;1177;-87
2021/07/15 04:58:52;;;;;;;;;;;;;;;;;;2107750;28;1181;-85
2021/07/15 04:59:53;;;;;;;;;;;;;;;;;;2107827;28;1296;-86
2021/07/15 05:00:55;;;;;;;;;;;;;;;;;;2107748;28;1352;-86
2021/07/15 05:01:56;;;;;;;;;;;;;;;;;;2116112;28;1293;-84
2021/07/15 05:02:59;;;;;;;;;;;;;;;;;;2116421;28;1367;-84
2021/07/15 05:04:00;;;;;;;;;;;;;;;;;;2112452;28;1378;-84
2021/07/15 05:05:02;;;;;;;;;;;;;;;;;;2109951;28;1458;-84
2021/07/15 05:06:04;;;;;;;;;;;;;;;;;;2110283;28;1348;-83
2021/07/15 05:07:05;;;;;;;;;;;;;;;;;;2111232;28;1300;-84
2021/07/15 05:08:07;;;;;;;;;;;;;;;;;;2112797;28;1427;-83
2021/07/15 05:09:09;;;;;;;;;;;;;;;;;;2103996;28;1265;-82
2021/07/15 05:10:11;;;;;;;;;;;;;;;;;;2099038;28;1305;-85
2021/07/15 05:11:13;;;;;;;;;;;;;;;;;;2099727;28;1382;-87
2021/07/15 05:12:14;;;;;;;;;;;;;;;;;;2115777;28;1915;-83
2021/07/15 05:13:15;;;;;;;;;;;;;;;;;;2116386;28;1163;-84
2021/07/15 05:14:16;;;;;;;;;;;;;;;;;;2113707;28;1844;-83
2021/07/15 05:15:18;;;;;;;;;;;;;;;;;;2109794;28;1300;-83
2021/07/15 05:16:18;;;;;;;;;;;;;;;;;;2119702;27;1271;-82
2021/07/15 05:17:20;;;;;;;;;;;;;;;;;;2106950;28;1320;-84
2021/07/15 05:18:21;;;;;;;;;;;;;;;;;;2101177;28;1308;-81
2021/07/15 05:19:22;;;;;;;;;;;;;;;;;;2123934;28;885;-81
2021/07/15 05:20:23;;;;;;;;;;;;;;;;;;2117594;28;1289;-81
2021/07/15 05:21:24;;;;;;;;;;;;;;;;;;2107100;28;1194;-82
2021/07/15 05:22:25;;;;;;;;;;;;;;;;;;2107121;28;1296;-82
2021/07/15 05:23:28;;;;;;;;;;;;;;;;;;2107601;28;1190;-83
2021/07/15 05:24:28;;;;;;;;;;;;;;;;;;2107278;28;1279;-84
2021/07/15 05:25:30;;;;;;;;;;;;;;;;;;2115932;28;1079;-85
2021/07/15 05:26:30;;;;;;;;;;;;;;;;;;2105748;28;1268;-84
2021/07/15 05:27:32;;;;;;;;;;;;;;;;;;2107146;28;1266;-84
2021/07/15 05:28:33;;;;;;;;;;;;;;;;;;2100739;28;1375;-84
2021/07/15 05:29:34;;;;;;;;;;;;;;;;;;2090766;28;1285;-85
2021/07/15 05:30:35;;;;;;;;;;;;;;;;;;2090640;28;1164;-84
2021/07/15 05:31:36;;;;;;;;;;;;;;;;;;2090883;28;1217;-85
2021/07/15 05:32:37;;;;;;;;;;;;;;;;;;2090457;28;1910;-85
2021/07/15 05:33:39;;;;;;;;;;;;;;;;;;2090610;28;1410;-86
2021/07/15 05:34:39;;;;;;;;;;;;;;;;;;2084780;28;1391;-86
2021/07/15 05:35:41;;;;;;;;;;;;;;;;;;2095337;28;1257;-88
2021/07/15 05:36:42;;;;;;;;;;;;;;;;;;2107615;28;889;-84
2021/07/15 05:37:44;;;;;;;;;;;;;;;;;;2099001;28;1210;-83
2021/07/15 05:38:46;;;;;;;;;;;;;;;;;;2090598;28;1152;-85
2021/07/15 05:39:47;;;;;;;;;;;;;;;;;;2090308;28;1334;-84
2021/07/15 05:40:48;;;;;;;;;;;;;;;;;;2090543;28;1201;-83
2021/07/15 05:41:50;;;;;;;;;;;;;;;;;;2090580;28;1300;-85
2021/07/15 05:42:51;;;;;;;;;;;;;;;;;;2090603;28;1324;-85
2021/07/15 05:43:52;;;;;;;;;;;;;;;;;;2090649;28;1229;-84
2021/07/15 05:44:53;;;;;;;;;;;;;;;;;;2090244;28;1286;-84
2021/07/15 05:45:54;;;;;;;;;;;;;;;;;;2090444;28;1254;-84
2021/07/15 05:46:55;;;;;;;;;;;;;;;;;;2090517;28;1355;-85
2021/07/15 05:47:57;;;;;;;;;;;;;;;;;;2098872;28;897;-84
2021/07/15 05:48:57;;;;;;;;;;;;;;;;;;2107885;28;1061;-85
2021/07/15 05:49:59;;;;;;;;;;;;;;;;;;2098807;28;1202;-84
2021/07/15 05:50:59;;;;;;;;;;;;;;;;;;2098874;28;934;-84
2021/07/15 05:52:01;;;;;;;;;;;;;;;;;;2107838;28;838;-84
2021/07/15 05:53:01;;;;;;;;;;;;;;;;;;2098604;28;1918;-84
2021/07/15 05:54:04;;;;;;;;;;;;;;;;;;2090542;28;1559;-84
2021/07/15 05:55:05;;;;;;;;;;;;;;;;;;2090624;28;1331;-84
2021/07/15 05:56:07;;;;;;;;;;;;;;;;;;2082240;28;1336;-85
2021/07/15 05:57:08;;;;;;;;;;;;;;;;;;2082387;28;1169;-84
2021/07/15 05:58:09;;;;;;;;;;;;;;;;;;2098757;28;957;-85
2021/07/15 05:59:10;;;;;;;;;;;;;;;;;;2098459;28;1191;-84
2021/07/15 06:00:13;;;;;;;;;;;;;;;;;;2090529;28;1355;-84
2021/07/15 06:01:14;;;;;;;;;;;;;;;;;;2091204;28;1163;-84
2021/07/15 06:02:17;;;;;;;;;;;;;;;;;;2099156;28;1036;-85
2021/07/15 06:03:17;;;;;;;;;;;;;;;;;;2099233;28;1181;-84
2021/07/15 06:04:19;;;;;;;;;;;;;;;;;;2082306;28;1197;-85
2021/07/15 06:05:20;;;;;;;;;;;;;;;;;;2082600;28;1283;-84
2021/07/15 06:06:21;;;;;;;;;;;;;;;;;;2090791;28;1268;-84
2021/07/15 06:07:22;;;;;;;;;;;;;;;;;;2090717;28;1220;-85
2021/07/15 06:08:23;;;;;;;;;;;;;;;;;;2090688;28;1460;-85
2021/07/15 06:09:25;;;;;;;;;;;;;;;;;;2090756;28;1311;-83
2021/07/15 06:10:27;;;;;;;;;;;;;;;;;;2090554;28;1322;-84
2021/07/15 06:11:28;;;;;;;;;;;;;;;;;;2090729;28;1318;-84
2021/07/15 06:12:29;;;;;;;;;;;;;;;;;;2090312;28;1195;-82
2021/07/15 06:13:30;;;;;;;;;;;;;;;;;;2098377;28;1170;-84
2021/07/15 06:14:31;;;;;;;;;;;;;;;;;;2098194;28;1228;-84
2021/07/15 06:15:32;;;;;;;;;;;;;;;;;;2090639;28;1201;-87
2021/07/15 06:16:34;;;;;;;;;;;;;;;;;;2090581;28;1190;-85
2021/07/15 06:17:35;;;;;;;;;;;;;;;;;;2098689;28;1283;-84
2021/07/15 06:18:36;;;;;;;;;;;;;;;;;;2099065;28;1312;-87
2021/07/15 06:19:37;;;;;;;;;;;;;;;;;;2090427;28;1192;-87
2021/07/15 06:20:39;;;;;;;;;;;;;;;;;;2090700;28;1203;-86
2021/07/15 06:21:39;;;;;;;;;;;;;;;;;;2090784;28;1195;-87
2021/07/15 06:22:41;;;;;;;;;;;;;;;;;;2090757;28;970;-87
2021/07/15 06:23:41;;;;;;;;;;;;;;;;;;2098843;28;1164;-87
2021/07/15 06:24:45;;;;;;;;;;;;;;;;;;2090603;28;1370;-87
2021/07/15 06:25:45;;;;;;;;;;;;;;;;;;2082877;28;1419;-87
2021/07/15 06:26:48;;;;;;;;;;;;;;;;;;2090763;28;1292;-87
2021/07/15 06:27:48;;;;;;;;;;;;;;;;;;2090838;28;1284;-87
2021/07/15 06:28:50;;;;;;;;;;;;;;;;;;2090747;28;1266;-87
2021/07/15 06:29:50;;;;;;;;;;;;;;;;;;2082296;28;1195;-87
2021/07/15 06:30:52;;;;;;;;;;;;;;;;;;2090682;28;1198;-86
2021/07/15 06:31:52;;;;;;;;;;;;;;;;;;2090750;28;1293;-87
2021/07/15 06:32:54;;;;;;;;;;;;;;;;;;2082487;28;1979;-87
2021/07/15 06:33:54;;;;;;;;;;;;;;;;;;2082593;28;1179;-87
2021/07/15 06:34:56;;;;;;;;;;;;;;;;;;2090741;28;1292;-87
2021/07/15 06:35:57;;;;;;;;;;;;;;;;;;2090812;28;1173;-87
2021/07/15 06:36:58;;;;;;;;;;;;;;;;;;2083668;28;1296;-88
2021/07/15 06:37:59;;;;;;;;;;;;;;;;;;2092158;28;1205;-87
2021/07/15 06:39:01;;;;;;;;;;;;;;;;;;2083995;28;1373;-87
2021/07/15 06:40:04;;;;;;;;;;;;;;;;;;2084244;28;1215;-88
2021/07/15 06:41:06;;;;;;;;;;;;;;;;;;2092173;28;1515;-88
2021/07/15 06:42:07;;;;;;;;;;;;;;;;;;2084087;28;1287;-87
2021/07/15 06:43:08;;;;;;;;;;;;;;;;;;2083929;28;1193;-87
2021/07/15 06:44:11;;;;;;;;;;;;;;;;;;2083960;28;1291;-87
2021/07/15 06:45:14;;;;;;;;;;;;;;;;;;2092057;28;1315;-87
2021/07/15 06:46:14;;;;;;;;;;;;;;;;;;2092391;28;1057;-87
2021/07/15 06:47:16;;;;;;;;;;;;;;;;;;2100782;28;1283;-87
2021/07/15 06:48:17;;;;;;;;;;;;;;;;;;2091845;28;1580;-88
2021/07/15 06:49:19;;;;;;;;;;;;;;;;;;2092674;28;1347;-87
2021/07/15 06:50:19;;;;;;;;;;;;;;;;;;2088717;28;1313;-87
2021/07/15 06:51:21;;;;;;;;;;;;;;;;;;2089773;28;1385;-87
2021/07/15 06:52:23;;;;;;;;;;;;;;;;;;2092159;28;1162;-88
2021/07/15 06:53:25;;;;;;;;;;;;;;;;;;2092060;28;1957;-86
2021/07/15 06:54:25;;;;;;;;;;;;;;;;;;2091998;28;1373;-86
2021/07/15 06:55:28;;;;;;;;;;;;;;;;;;2100258;28;1198;-86
2021/07/15 06:56:29;;;;;;;;;;;;;;;;;;2091926;28;1308;-86
2021/07/15 06:57:30;;;;;;;;;;;;;;;;;;2092003;28;1376;-86
2021/07/15 06:58:31;;;;;;;;;;;;;;;;;;2091901;28;1306;-86
2021/07/15 06:59:32;;;;;;;;;;;;;;;;;;2091833;28;1203;-85
2021/07/15 07:00:34;;;;;;;;;;;;;;;;;;2091590;28;1238;-86
2021/07/15 07:01:36;;;;;;;;;;;;;;;;;;2091873;28;1295;-86
2021/07/15 07:02:37;;;;;;;;;;;;;;;;;;2091752;28;1349;-86
2021/07/15 07:03:38;;;;;;;;;;;;;;;;;;2100112;28;898;-88
2021/07/15 07:04:39;;;;;;;;;;;;;;;;;;2109034;28;1290;-86
2021/07/15 07:05:40;;;;;;;;;;;;;;;;;;2100193;28;1314;-86
2021/07/15 07:06:41;;;;;;;;;;;;;;;;;;2091878;28;1314;-86
2021/07/15 07:07:43;;;;;;;;;;;;;;;;;;2091809;28;1418;-86
2021/07/15 07:08:43;;;;;;;;;;;;;;;;;;2091855;28;1351;-85
2021/07/15 07:09:45;;;;;;;;;;;;;;;;;;2100025;28;1294;-85
2021/07/15 07:10:47;;;;;;;;;;;;;;;;;;2100233;28;1171;-86
2021/07/15 07:11:48;;;;;;;;;;;;;;;;;;2091843;28;1229;-85
2021/07/15 07:12:49;;;;;;;;;;;;;;;;;;2099878;28;1312;-86